createdAt,value
2018-08-31T00:02:12.846Z,3.50
2018-08-31T00:05:40.800Z,2.83
2018-08-31T00:08:21.295Z,2.83
2018-08-31T00:10:59.600Z,2.63
2018-08-31T00:13:28.142Z,3.67
2018-08-31T00:15:56.625Z,4.03
2018-08-31T00:18:25.349Z,3.90
2018-08-31T00:20:53.901Z,3.83
2018-08-31T00:23:32.372Z,4.03
2018-08-31T00:26:14.551Z,3.80
2018-08-31T00:29:56.050Z,4.10
2018-08-31T00:33:04.012Z,3.53
2018-08-31T00:36:02.453Z,3.73
2018-08-31T00:38:45.804Z,3.67
2018-08-31T00:42:25.396Z,3.83
2018-08-31T00:45:05.039Z,5.23
2018-08-31T00:47:33.496Z,3.70
2018-08-31T00:50:04.251Z,4.20
2018-08-31T00:52:32.679Z,4.20
2018-08-31T00:55:01.297Z,5.57
2018-08-31T00:57:29.742Z,5.70
2018-08-31T00:59:58.216Z,5.13
2018-08-31T01:02:26.778Z,4.30
2018-08-31T01:04:55.356Z,4.27
2018-08-31T01:07:23.811Z,4.50
2018-08-31T01:09:52.294Z,4.70
2018-08-31T01:12:20.797Z,4.57
2018-08-31T01:14:49.293Z,3.43
2018-08-31T01:18:01.753Z,3.10
2018-08-31T01:20:30.571Z,3.70
2018-08-31T01:22:59.052Z,4.77
2018-08-31T01:25:34.092Z,4.83
2018-08-31T01:28:02.981Z,5.20
2018-08-31T01:30:31.497Z,5.40
2018-08-31T01:32:59.947Z,5.10
2018-08-31T01:35:28.512Z,5.60
2018-08-31T01:37:58.115Z,4.40
2018-08-31T01:40:26.612Z,3.80
2018-08-31T01:42:55.054Z,4.07
2018-08-31T01:45:23.627Z,4.27
2018-08-31T01:47:52.129Z,4.27
2018-08-31T01:50:20.597Z,4.80
2018-08-31T01:52:49.289Z,4.77
2018-08-31T01:55:17.792Z,4.70
2018-08-31T01:57:46.314Z,4.30
2018-08-31T02:00:14.786Z,4.70
2018-08-31T02:02:43.261Z,4.87
2018-08-31T02:05:11.783Z,4.90
2018-08-31T02:07:40.327Z,4.50
2018-08-31T02:10:08.821Z,4.87
2018-08-31T02:12:37.298Z,4.20
2018-08-31T02:15:05.797Z,4.43
2018-08-31T02:17:34.352Z,3.73
2018-08-31T02:20:02.840Z,4.80
2018-08-31T02:22:31.325Z,4.30
2018-08-31T02:24:59.797Z,4.70
2018-08-31T02:27:28.372Z,4.40
2018-08-31T02:29:56.953Z,4.17
2018-08-31T02:33:10.678Z,4.53
2018-08-31T02:35:39.226Z,4.60
2018-08-31T02:38:07.813Z,4.53
2018-08-31T02:40:36.227Z,4.53
2018-08-31T02:43:04.951Z,4.17
2018-08-31T02:45:33.620Z,3.87
2018-08-31T02:48:02.130Z,4.40
2018-08-31T02:50:30.582Z,4.90
2018-08-31T02:52:59.022Z,5.47
2018-08-31T02:55:27.559Z,5.67
2018-08-31T02:57:56.047Z,5.67
2018-08-31T03:00:32.991Z,5.37
2018-08-31T03:03:01.490Z,4.73
2018-08-31T03:05:29.972Z,5.50
2018-08-31T03:07:58.465Z,5.47
2018-08-31T03:10:26.951Z,5.90
2018-08-31T03:12:55.425Z,4.93
2018-08-31T03:15:24.069Z,5.20
2018-08-31T03:17:52.499Z,5.93
2018-08-31T03:20:21.178Z,4.67
2018-08-31T03:22:49.636Z,6.47
2018-08-31T03:25:18.187Z,5.83
2018-08-31T03:27:46.632Z,5.67
2018-08-31T03:30:15.322Z,5.70
2018-08-31T03:32:47.073Z,6.20
2018-08-31T03:35:15.597Z,5.57
2018-08-31T03:37:44.157Z,6.97
2018-08-31T03:40:12.725Z,6.43
2018-08-31T03:42:41.238Z,7.00
2018-08-31T03:45:09.802Z,7.87
2018-08-31T03:47:38.362Z,7.13
2018-08-31T03:50:07.111Z,7.07
2018-08-31T03:52:35.639Z,7.13
2018-08-31T03:55:04.216Z,6.67
2018-08-31T03:57:32.756Z,6.40
2018-08-31T04:00:01.321Z,7.63
2018-08-31T04:02:30.994Z,6.50
2018-08-31T04:04:59.487Z,5.90
2018-08-31T04:07:27.997Z,6.63
2018-08-31T04:09:56.553Z,6.67
2018-08-31T04:12:25.132Z,6.13
2018-08-31T04:14:53.767Z,6.47
2018-08-31T04:17:22.297Z,6.40
2018-08-31T04:19:50.774Z,6.63
2018-08-31T04:22:19.309Z,7.77
2018-08-31T04:24:47.842Z,8.07
2018-08-31T04:27:16.378Z,7.30
2018-08-31T04:29:44.905Z,6.73
2018-08-31T04:32:13.478Z,7.97
2018-08-31T04:34:41.989Z,6.60
2018-08-31T04:37:24.863Z,8.10
2018-08-31T04:39:53.293Z,5.07
2018-08-31T04:42:21.748Z,6.20
2018-08-31T04:44:50.275Z,5.70
2018-08-31T04:47:19.033Z,4.90
2018-08-31T04:49:47.511Z,5.90
2018-08-31T04:52:16.034Z,4.57
2018-08-31T04:54:44.581Z,5.30
2018-08-31T04:57:13.265Z,4.83
2018-08-31T04:59:42.166Z,4.80
2018-08-31T05:02:10.788Z,6.60
2018-08-31T05:04:39.468Z,7.00
2018-08-31T05:07:08.022Z,8.00
2018-08-31T05:09:36.527Z,7.67
2018-08-31T05:12:05.276Z,5.23
2018-08-31T05:14:33.875Z,5.43
2018-08-31T05:17:02.418Z,4.67
2018-08-31T05:19:32.173Z,4.40
2018-08-31T05:22:00.743Z,5.37
2018-08-31T05:24:31.257Z,6.30
2018-08-31T05:26:59.752Z,7.00
2018-08-31T05:29:28.280Z,7.13
2018-08-31T05:31:56.712Z,7.47
2018-08-31T05:34:25.209Z,7.77
2018-08-31T05:36:54.103Z,7.23
2018-08-31T05:39:22.563Z,8.47
2018-08-31T05:41:51.207Z,8.43
2018-08-31T05:44:19.744Z,7.30
2018-08-31T05:46:48.232Z,7.60
2018-08-31T05:49:17.027Z,8.47
2018-08-31T05:51:45.660Z,7.30
2018-08-31T05:54:14.200Z,8.67
2018-08-31T05:56:42.862Z,9.03
2018-08-31T05:59:11.382Z,8.23
2018-08-31T06:01:39.845Z,8.07
2018-08-31T06:04:08.511Z,6.63
2018-08-31T06:06:40.231Z,6.83
2018-08-31T06:09:09.792Z,7.67
2018-08-31T06:11:38.479Z,6.60
2018-08-31T06:14:07.305Z,7.37
2018-08-31T06:16:37.066Z,6.90
2018-08-31T06:19:05.760Z,7.73
2018-08-31T06:21:34.391Z,7.07
2018-08-31T06:24:02.855Z,7.07
2018-08-31T06:26:31.605Z,6.30
2018-08-31T06:29:00.091Z,7.40
2018-08-31T06:31:28.609Z,7.47
2018-08-31T06:33:57.109Z,7.67
2018-08-31T06:36:25.526Z,7.43
2018-08-31T06:38:54.952Z,6.30
2018-08-31T06:41:23.406Z,6.33
2018-08-31T06:43:51.918Z,7.40
2018-08-31T06:46:20.396Z,6.90
2018-08-31T06:48:48.979Z,6.97
2018-08-31T06:51:17.632Z,5.93
2018-08-31T06:53:46.147Z,6.63
2018-08-31T06:56:14.718Z,6.27
2018-08-31T06:58:43.306Z,7.97
2018-08-31T07:01:11.792Z,6.30
2018-08-31T07:03:40.541Z,6.07
2018-08-31T07:06:09.112Z,6.73
2018-08-31T07:08:37.755Z,5.43
2018-08-31T07:11:06.281Z,6.03
2018-08-31T07:13:34.828Z,4.90
2018-08-31T07:16:03.680Z,5.83
2018-08-31T07:18:32.142Z,4.93
2018-08-31T07:21:00.680Z,6.43
2018-08-31T07:23:29.158Z,5.17
2018-08-31T07:25:57.625Z,5.23
2018-08-31T07:28:31.344Z,5.40
2018-08-31T07:30:59.806Z,5.37
2018-08-31T07:33:28.351Z,4.70
2018-08-31T07:35:56.889Z,4.10
2018-08-31T07:38:25.473Z,4.50
2018-08-31T07:40:54.241Z,4.57
2018-08-31T07:43:22.709Z,4.17
2018-08-31T07:45:51.205Z,4.43
2018-08-31T07:48:19.716Z,4.80
2018-08-31T07:50:48.292Z,3.83
2018-08-31T07:53:17.278Z,4.00
2018-08-31T07:55:45.865Z,4.50
2018-08-31T07:58:14.396Z,4.00
2018-08-31T08:00:42.939Z,3.50
2018-08-31T08:03:11.388Z,3.53
2018-08-31T08:06:03.642Z,3.53
2018-08-31T08:08:32.199Z,3.27
2018-08-31T08:11:00.727Z,3.70
2018-08-31T08:13:29.358Z,3.60
2018-08-31T08:15:57.898Z,3.50
2018-08-31T08:18:26.373Z,3.10
2018-08-31T08:20:54.947Z,3.93
2018-08-31T08:23:23.583Z,3.33
2018-08-31T08:25:52.021Z,2.80
2018-08-31T08:28:20.572Z,3.50
2018-08-31T08:30:49.088Z,2.67
2018-08-31T08:33:17.535Z,2.67
2018-08-31T08:35:46.197Z,4.07
2018-08-31T08:38:14.778Z,3.20
2018-08-31T08:40:43.370Z,3.63
2018-08-31T08:43:12.039Z,2.50
2018-08-31T08:45:40.610Z,2.30
2018-08-31T08:48:09.202Z,2.50
2018-08-31T08:50:37.765Z,2.00
2018-08-31T08:53:06.218Z,1.50
2018-08-31T08:55:34.755Z,1.90
2018-08-31T08:58:04.269Z,1.67
2018-08-31T09:00:32.735Z,2.10
2018-08-31T09:03:01.314Z,1.73
2018-08-31T09:05:30.133Z,1.27
2018-08-31T09:07:58.674Z,1.83
2018-08-31T09:10:27.868Z,2.00
2018-08-31T09:12:56.411Z,1.20
2018-08-31T09:15:24.954Z,1.60
2018-08-31T09:17:53.942Z,1.33
2018-08-31T09:20:22.781Z,1.40
2018-08-31T09:22:51.415Z,2.40
2018-08-31T09:25:20.297Z,1.80
2018-08-31T09:27:48.766Z,1.50
2018-08-31T09:30:22.381Z,1.73
2018-08-31T09:32:50.873Z,1.13
2018-08-31T09:35:19.369Z,1.17
2018-08-31T09:37:48.076Z,0.93
2018-08-31T09:40:16.713Z,1.20
2018-08-31T09:42:45.202Z,1.17
2018-08-31T09:45:13.702Z,1.67
2018-08-31T09:47:42.270Z,1.67
2018-08-31T09:50:10.857Z,1.90
2018-08-31T09:52:39.348Z,1.90
2018-08-31T09:55:07.902Z,1.47
2018-08-31T09:57:39.493Z,1.27
2018-08-31T10:00:08.681Z,1.10
2018-08-31T10:02:38.033Z,1.30
2018-08-31T10:05:07.876Z,1.30
2018-08-31T10:07:36.458Z,1.50
2018-08-31T10:10:05.094Z,1.20
2018-08-31T10:12:33.695Z,1.70
2018-08-31T10:15:02.239Z,1.73
2018-08-31T10:17:31.153Z,1.20
2018-08-31T10:19:59.593Z,1.03
2018-08-31T10:22:28.105Z,1.30
2018-08-31T10:24:56.788Z,1.10
2018-08-31T10:27:25.260Z,1.73
2018-08-31T10:29:53.820Z,1.07
2018-08-31T10:32:22.313Z,1.53
2018-08-31T10:34:50.777Z,1.30
2018-08-31T10:37:19.283Z,1.50
2018-08-31T10:39:47.844Z,1.17
2018-08-31T10:42:20.131Z,1.63
2018-08-31T10:44:48.650Z,1.90
2018-08-31T10:47:17.177Z,1.50
2018-08-31T10:49:45.673Z,1.13
2018-08-31T10:52:14.201Z,1.63
2018-08-31T10:54:42.710Z,1.60
2018-08-31T10:57:11.155Z,1.87
2018-08-31T10:59:39.735Z,1.80
2018-08-31T11:02:08.183Z,1.77
2018-08-31T11:04:36.662Z,1.30
2018-08-31T11:07:05.138Z,1.67
2018-08-31T11:09:33.625Z,1.50
2018-08-31T11:12:02.114Z,1.63
2018-08-31T11:14:55.180Z,1.33
2018-08-31T11:17:23.749Z,1.23
2018-08-31T11:19:52.245Z,1.80
2018-08-31T11:22:42.124Z,1.80
2018-08-31T11:25:10.703Z,12.80
2018-08-31T11:27:39.262Z,4.23
2018-08-31T11:30:09.143Z,2.20
2018-08-31T11:32:38.039Z,1.90
2018-08-31T11:35:06.763Z,2.07
2018-08-31T11:38:02.863Z,1.97
2018-08-31T11:40:31.395Z,1.50
2018-08-31T11:43:00.036Z,1.10
2018-08-31T11:45:28.558Z,2.13
2018-08-31T11:47:57.074Z,1.57
2018-08-31T11:50:25.726Z,1.73
2018-08-31T11:52:54.238Z,1.80
2018-08-31T11:55:22.954Z,1.93
2018-08-31T11:57:55.571Z,1.73
2018-08-31T12:00:24.165Z,1.30
2018-08-31T12:02:52.633Z,2.00
2018-08-31T12:05:21.096Z,1.87
2018-08-31T12:07:49.710Z,2.10
2018-08-31T12:10:18.174Z,1.70
2018-08-31T12:12:46.662Z,2.17
2018-08-31T12:15:15.160Z,2.27
2018-08-31T12:17:43.910Z,1.73
2018-08-31T12:20:12.381Z,1.13
2018-08-31T12:22:41.912Z,1.70
2018-08-31T12:25:10.407Z,1.93
2018-08-31T12:27:39.741Z,1.87
2018-08-31T12:30:08.425Z,1.40
2018-08-31T12:32:36.843Z,1.53
2018-08-31T12:35:05.458Z,1.50
2018-08-31T12:37:33.919Z,1.87
2018-08-31T12:40:02.524Z,1.50
2018-08-31T12:42:31.005Z,2.40
2018-08-31T12:44:59.627Z,1.50
2018-08-31T12:47:28.183Z,1.83
2018-08-31T12:49:56.746Z,1.47
2018-08-31T12:52:25.300Z,1.37
2018-08-31T12:54:53.758Z,1.47
2018-08-31T12:57:22.304Z,1.40
2018-08-31T12:59:56.043Z,1.53
2018-08-31T13:02:24.452Z,1.73
2018-08-31T13:04:52.996Z,1.30
2018-08-31T13:07:21.588Z,1.20
2018-08-31T13:09:50.062Z,1.53
2018-08-31T13:12:18.628Z,2.00
2018-08-31T13:14:47.107Z,1.47
2018-08-31T13:17:15.704Z,1.57
2018-08-31T13:19:44.319Z,1.90
2018-08-31T13:22:13.011Z,1.70
2018-08-31T13:24:41.444Z,2.20
2018-08-31T13:27:10.109Z,1.67
2018-08-31T13:29:38.604Z,1.93
2018-08-31T13:32:07.189Z,2.00
2018-08-31T13:34:35.759Z,1.43
2018-08-31T13:37:04.380Z,1.70
2018-08-31T13:39:34.180Z,1.50
2018-08-31T13:42:02.895Z,1.87
2018-08-31T13:44:31.457Z,1.50
2018-08-31T13:47:00.148Z,1.87
2018-08-31T13:49:28.708Z,1.70
2018-08-31T13:51:57.381Z,0.77
2018-08-31T13:54:25.881Z,1.93
2018-08-31T13:56:54.350Z,1.73
2018-08-31T13:59:22.834Z,2.00
2018-08-31T14:01:51.338Z,1.30
2018-08-31T14:04:35.292Z,1.73
2018-08-31T14:07:23.476Z,1.90
2018-08-31T14:09:52.005Z,1.37
2018-08-31T14:12:20.592Z,1.53
2018-08-31T14:14:49.060Z,1.50
2018-08-31T14:17:44.703Z,1.57
2018-08-31T14:20:13.277Z,1.47
2018-08-31T14:22:41.876Z,1.43
2018-08-31T14:25:10.437Z,1.97
2018-08-31T14:27:39.005Z,1.80
2018-08-31T14:30:07.937Z,1.90
2018-08-31T14:32:36.585Z,1.53
2018-08-31T14:35:05.075Z,1.50
2018-08-31T14:37:33.658Z,1.30
2018-08-31T14:40:02.125Z,1.53
2018-08-31T14:42:31.232Z,1.40
2018-08-31T14:44:59.817Z,1.80
2018-08-31T14:47:28.344Z,2.67
2018-08-31T14:49:56.972Z,1.40
2018-08-31T14:52:25.497Z,1.30
2018-08-31T14:54:53.965Z,1.90
2018-08-31T14:57:22.390Z,1.57
2018-08-31T14:59:50.928Z,1.10
2018-08-31T15:02:19.500Z,1.50
2018-08-31T15:04:51.228Z,1.50
2018-08-31T15:07:19.762Z,1.27
2018-08-31T15:09:48.353Z,1.43
2018-08-31T15:12:16.916Z,1.93
2018-08-31T15:14:45.402Z,1.70
2018-08-31T15:17:13.965Z,1.40
2018-08-31T15:19:42.436Z,1.43
2018-08-31T15:22:11.046Z,1.60
2018-08-31T15:24:39.480Z,1.57
2018-08-31T15:27:07.976Z,1.37
2018-08-31T15:29:36.567Z,1.30
2018-08-31T15:32:05.377Z,1.13
2018-08-31T15:34:34.027Z,1.20
2018-08-31T15:37:02.540Z,1.10
2018-08-31T15:39:31.053Z,1.23
2018-08-31T15:41:59.592Z,1.77
2018-08-31T15:44:28.094Z,1.93
2018-08-31T15:46:57.187Z,1.37
2018-08-31T15:49:25.651Z,1.77
2018-08-31T15:51:54.142Z,1.47
2018-08-31T15:54:22.739Z,1.97
2018-08-31T15:56:51.301Z,1.23
2018-08-31T15:59:19.787Z,1.60
2018-08-31T16:01:49.064Z,1.77
2018-08-31T16:04:17.593Z,1.37
2018-08-31T16:06:46.020Z,1.40
2018-08-31T16:09:14.521Z,1.10
2018-08-31T16:11:43.115Z,1.40
2018-08-31T16:14:11.576Z,2.00
2018-08-31T16:16:40.175Z,1.27
2018-08-31T16:19:08.670Z,1.80
2018-08-31T16:25:02.179Z,1.57
2018-08-31T16:27:30.761Z,1.53
2018-08-31T16:29:59.288Z,1.60
2018-08-31T16:32:27.790Z,1.30
2018-08-31T16:34:56.388Z,1.47
2018-08-31T16:37:24.861Z,1.30
2018-08-31T16:39:53.503Z,1.43
2018-08-31T16:42:21.955Z,1.60
2018-08-31T16:44:50.505Z,1.40
2018-08-31T16:47:19.124Z,1.30
2018-08-31T16:49:47.665Z,1.20
2018-08-31T16:52:17.234Z,1.20
2018-08-31T16:54:45.779Z,1.50
2018-08-31T16:57:14.353Z,1.50
2018-08-31T16:59:42.814Z,1.83
2018-08-31T17:02:11.474Z,1.37
2018-08-31T17:04:39.901Z,1.30
2018-08-31T17:07:08.384Z,2.03
2018-08-31T17:09:36.864Z,1.20
2018-08-31T17:12:05.614Z,1.97
2018-08-31T17:14:34.148Z,1.10
2018-08-31T17:17:02.701Z,1.23
2018-08-31T17:19:31.192Z,1.80
2018-08-31T17:21:59.809Z,1.87
2018-08-31T17:24:28.567Z,1.70
2018-08-31T17:27:02.331Z,1.33
2018-08-31T17:29:40.893Z,1.90
2018-08-31T17:32:14.665Z,1.63
2018-08-31T17:34:48.342Z,1.60
2018-08-31T17:37:22.191Z,1.43
2018-08-31T17:39:50.724Z,1.10
2018-08-31T17:42:19.305Z,1.70
2018-08-31T17:44:47.939Z,1.33
2018-08-31T17:47:16.487Z,1.40
2018-08-31T17:49:45.045Z,2.33
2018-08-31T17:52:13.862Z,1.50
2018-08-31T17:54:42.474Z,1.67
2018-08-31T17:57:11.048Z,1.57
2018-08-31T17:59:39.721Z,1.33
2018-08-31T18:02:08.411Z,1.90
2018-08-31T18:04:37.149Z,1.80
2018-08-31T18:07:05.961Z,1.40
2018-08-31T18:09:34.485Z,1.33
2018-08-31T18:12:03.158Z,1.70
2018-08-31T18:14:31.707Z,2.13
2018-08-31T18:17:00.283Z,1.50
2018-08-31T18:19:28.768Z,1.40
2018-08-31T18:21:57.365Z,1.77
2018-08-31T18:24:26.667Z,1.40
2018-08-31T18:26:55.138Z,1.60
2018-08-31T18:29:24.893Z,1.77
2018-08-31T18:31:53.523Z,1.40
2018-08-31T18:34:22.096Z,1.67
2018-08-31T18:36:50.893Z,1.90
2018-08-31T18:39:19.482Z,1.70
2018-08-31T18:41:48.078Z,1.47
2018-08-31T18:44:16.706Z,1.90
2018-08-31T18:46:45.422Z,2.10
2018-08-31T18:49:13.927Z,1.60
2018-08-31T18:51:42.400Z,1.60
2018-08-31T18:54:11.116Z,1.50
2018-08-31T18:56:39.721Z,1.57
2018-08-31T18:59:08.320Z,1.50
2018-08-31T19:01:37.009Z,1.67
2018-08-31T19:04:05.550Z,2.07
2018-08-31T19:06:34.218Z,2.27
2018-08-31T19:09:02.886Z,1.83
2018-08-31T19:11:31.360Z,1.70
2018-08-31T19:14:00.145Z,1.97
2018-08-31T19:16:29.215Z,1.73
2018-08-31T19:18:57.787Z,1.37
2018-08-31T19:21:26.283Z,1.40
2018-08-31T19:23:54.861Z,1.77
2018-08-31T19:26:23.377Z,1.93
2018-08-31T19:28:51.842Z,1.63
2018-08-31T19:31:20.464Z,1.50
2018-08-31T19:33:49.041Z,1.63
2018-08-31T19:36:17.571Z,2.30
2018-08-31T19:39:12.271Z,1.77
2018-08-31T19:41:41.047Z,1.60
2018-08-31T19:44:09.809Z,2.00
2018-08-31T19:46:38.643Z,2.13
2018-08-31T19:49:07.336Z,1.53
2018-08-31T19:51:35.943Z,2.13
2018-08-31T19:57:53.263Z,1.70
2018-08-31T20:00:21.942Z,1.17
2018-08-31T20:02:51.122Z,1.73
2018-08-31T20:05:19.689Z,1.70
2018-08-31T20:07:48.316Z,2.00
2018-08-31T20:10:16.872Z,1.70
2018-08-31T20:12:46.183Z,2.33
2018-08-31T20:15:14.892Z,2.03
2018-08-31T20:17:43.765Z,1.83
2018-08-31T20:20:12.300Z,2.10
2018-08-31T20:22:40.869Z,2.50
2018-08-31T20:25:16.810Z,1.90
2018-08-31T20:27:45.478Z,1.90
2018-08-31T20:30:13.955Z,2.33
2018-08-31T20:32:42.742Z,2.37
2018-08-31T20:35:14.536Z,2.70
2018-08-31T20:37:43.038Z,2.90
2018-08-31T20:40:11.670Z,2.67
2018-08-31T20:43:21.924Z,3.00
2018-08-31T20:45:50.508Z,2.80
2018-08-31T20:48:19.108Z,2.87
2018-08-31T20:50:47.707Z,3.00
2018-08-31T20:53:16.326Z,3.10
2018-08-31T20:55:44.859Z,2.50
2018-08-31T20:58:13.480Z,2.57
2018-08-31T21:00:41.989Z,2.33
2018-08-31T21:03:11.440Z,2.50
2018-08-31T21:05:40.008Z,2.27
2018-08-31T21:08:08.648Z,2.93
2018-08-31T21:10:37.164Z,2.90
2018-08-31T21:13:05.670Z,3.30
2018-08-31T21:15:34.221Z,1.83
2018-08-31T21:18:02.800Z,2.53
2018-08-31T21:20:31.793Z,3.13
2018-08-31T21:23:00.473Z,3.20
2018-08-31T21:25:29.066Z,2.83
2018-08-31T21:27:57.556Z,2.73
2018-08-31T21:30:26.249Z,3.00
2018-08-31T21:32:54.954Z,2.77
2018-08-31T21:35:23.506Z,2.73
2018-08-31T21:37:52.185Z,2.97
2018-08-31T21:40:20.855Z,3.33
2018-08-31T21:42:49.361Z,2.60
2018-08-31T21:45:18.410Z,2.20
2018-08-31T21:47:46.866Z,2.53
2018-08-31T21:50:15.393Z,3.00
2018-08-31T21:52:44.191Z,2.60
2018-08-31T21:55:12.823Z,2.70
2018-08-31T21:57:41.781Z,3.00
2018-08-31T22:00:14.409Z,2.63
2018-08-31T22:02:43.035Z,3.07
2018-08-31T22:05:11.615Z,3.03
2018-08-31T22:07:40.298Z,2.73
2018-08-31T22:10:09.060Z,2.73
2018-08-31T22:12:37.718Z,2.80
2018-08-31T22:15:11.245Z,2.63
2018-08-31T22:17:40.184Z,3.07
2018-08-31T22:20:08.868Z,3.17
2018-08-31T22:22:37.606Z,3.37
2018-08-31T22:25:10.859Z,3.23
2018-08-31T22:27:39.359Z,3.17
2018-08-31T22:30:07.844Z,3.27
2018-08-31T22:32:44.941Z,3.53
2018-08-31T22:35:13.600Z,4.50
2018-08-31T22:37:42.244Z,4.63
2018-08-31T22:40:10.916Z,3.07
2018-08-31T22:42:39.480Z,2.67
2018-08-31T22:45:12.926Z,3.60
2018-08-31T22:47:42.350Z,3.03
2018-08-31T22:50:11.146Z,3.33
2018-08-31T22:52:39.936Z,3.93
2018-08-31T22:55:08.603Z,3.73
2018-08-31T22:57:37.082Z,3.53
2018-08-31T23:00:05.836Z,2.93
2018-08-31T23:02:34.356Z,3.40
2018-08-31T23:05:03.063Z,3.60
2018-08-31T23:07:36.835Z,3.67
2018-08-31T23:10:05.781Z,3.70
2018-08-31T23:12:57.181Z,3.90
2018-08-31T23:19:13.709Z,3.40
2018-08-31T23:21:42.329Z,3.43
2018-08-31T23:24:10.786Z,3.67
2018-08-31T23:26:39.325Z,3.07
2018-08-31T23:29:07.823Z,4.70
2018-08-31T23:31:36.339Z,4.27
2018-08-31T23:34:04.814Z,4.40
2018-08-31T23:40:07.729Z,4.53
2018-08-31T23:42:36.369Z,4.97
2018-08-31T23:45:04.935Z,3.73
2018-08-31T23:47:34.612Z,3.63
2018-08-31T23:50:03.196Z,5.07
2018-08-31T23:52:31.750Z,6.20
2018-08-31T23:55:00.220Z,5.27
2018-08-31T23:57:28.707Z,4.57
2018-08-31T23:59:57.287Z,4.70
